createdAt,value
2019-05-09T00:41:35.062Z,60.03
2019-05-09T00:44:08.313Z,58.96
2019-05-09T00:46:38.518Z,59.84
2019-05-09T00:49:13.955Z,60.00
2019-05-09T00:51:43.725Z,60.49
2019-05-09T00:54:13.502Z,59.87
2019-05-09T00:56:43.601Z,60.74
2019-05-09T00:59:13.477Z,60.71
2019-05-09T01:01:43.706Z,60.13
2019-05-09T01:04:13.601Z,61.12
2019-05-09T01:06:43.411Z,60.47
2019-05-09T01:09:13.718Z,61.64
2019-05-09T01:11:43.965Z,60.70
2019-05-09T01:14:14.206Z,59.44
2019-05-09T01:16:44.056Z,60.20
2019-05-09T01:19:14.167Z,61.04
2019-05-09T01:21:43.808Z,59.83
2019-05-09T01:24:13.906Z,59.37
2019-05-09T01:26:43.630Z,60.49
2019-05-09T01:29:13.832Z,59.31
2019-05-09T01:31:43.545Z,59.00
2019-05-09T01:34:20.404Z,59.59
2019-05-09T01:37:05.072Z,60.25
2019-05-09T01:39:35.152Z,60.52
2019-05-09T01:42:03.972Z,60.82
2019-05-09T01:44:34.024Z,60.88
2019-05-09T01:47:04.459Z,60.97
2019-05-09T01:49:34.445Z,59.88
2019-05-09T01:52:03.820Z,58.98
2019-05-09T01:54:34.537Z,60.00
2019-05-09T01:57:03.532Z,59.98
2019-05-09T01:59:33.933Z,60.30
2019-05-09T02:02:08.310Z,60.29
2019-05-09T02:04:33.542Z,60.06
2019-05-09T02:07:04.169Z,59.94
2019-05-09T02:09:34.174Z,60.06
2019-05-09T02:12:03.819Z,60.25
2019-05-09T02:14:54.253Z,60.30
2019-05-09T02:17:27.715Z,60.33
2019-05-09T02:19:56.420Z,59.73
2019-05-09T02:22:34.868Z,60.03
2019-05-09T02:25:06.282Z,60.06
2019-05-09T02:27:34.982Z,60.24
2019-05-09T02:30:06.010Z,59.76
2019-05-09T02:32:36.118Z,59.95
2019-05-09T02:35:07.481Z,60.32
2019-05-09T02:37:38.827Z,59.75
2019-05-09T02:40:09.711Z,60.52
2019-05-09T02:42:39.670Z,59.42
2019-05-09T02:45:08.832Z,60.44
2019-05-09T02:47:38.466Z,59.97
2019-05-09T02:50:10.207Z,60.38
2019-05-09T02:52:39.819Z,59.30
2019-05-09T02:55:10.883Z,59.89
2019-05-09T02:57:39.715Z,59.16
2019-05-09T03:00:28.888Z,59.92
2019-05-09T03:03:04.596Z,60.75
2019-05-09T03:05:33.243Z,61.39
2019-05-09T03:08:01.884Z,61.66
2019-05-09T03:10:30.497Z,60.79
2019-05-09T03:12:59.623Z,60.34
2019-05-09T03:15:29.435Z,59.84
2019-05-09T03:17:59.827Z,60.03
2019-05-09T03:20:33.336Z,61.06
2019-05-09T03:23:02.020Z,59.21
2019-05-09T03:25:31.105Z,59.16
2019-05-09T03:28:10.666Z,59.44
2019-05-09T03:30:40.881Z,60.35
2019-05-09T03:33:10.548Z,59.68
2019-05-09T03:35:39.355Z,59.06
2019-05-09T03:38:08.513Z,59.45
2019-05-09T03:40:37.998Z,58.49
2019-05-09T03:43:08.146Z,58.75
2019-05-09T03:45:54.037Z,59.97
2019-05-09T03:48:24.330Z,59.54
2019-05-09T03:50:52.895Z,59.20
2019-05-09T03:53:21.584Z,59.50
2019-05-09T03:55:52.122Z,59.11
2019-05-09T03:58:21.446Z,58.20
2019-05-09T04:00:50.209Z,58.64
2019-05-09T04:03:20.353Z,58.96
2019-05-09T04:05:59.114Z,58.52
2019-05-09T04:08:20.196Z,59.48
2019-05-09T04:10:53.219Z,58.85
2019-05-09T04:13:24.518Z,58.09
2019-05-09T04:15:53.088Z,57.77
2019-05-09T04:18:21.705Z,57.98
2019-05-09T04:20:50.354Z,58.56
2019-05-09T04:23:18.989Z,58.43
2019-05-09T04:25:52.134Z,57.89
2019-05-09T04:28:20.880Z,57.63
2019-05-09T04:30:49.599Z,56.61
2019-05-09T04:33:18.286Z,56.94
2019-05-09T04:35:47.555Z,56.78
2019-05-09T04:38:17.956Z,55.85
2019-05-09T04:40:48.827Z,55.17
2019-05-09T04:43:26.664Z,53.95
2019-05-09T04:46:01.515Z,52.89
2019-05-09T04:48:34.833Z,50.53
2019-05-09T04:51:07.822Z,49.35
2019-05-09T04:53:37.651Z,49.10
2019-05-09T04:56:14.219Z,49.13
2019-05-09T04:58:43.020Z,49.76
2019-05-09T05:01:13.402Z,48.02
2019-05-09T05:03:45.173Z,48.89
2019-05-09T05:06:13.824Z,49.13
2019-05-09T05:08:42.465Z,49.24
2019-05-09T05:11:11.186Z,49.42
2019-05-09T05:13:40.043Z,48.69
2019-05-09T05:16:09.305Z,47.81
2019-05-09T05:18:38.009Z,47.89
2019-05-09T05:21:07.800Z,48.45
2019-05-09T05:23:50.749Z,48.68
2019-05-09T05:26:20.975Z,48.32
2019-05-09T05:28:49.651Z,48.62
2019-05-09T05:31:18.399Z,47.56
2019-05-09T05:33:57.897Z,46.49
2019-05-09T05:36:27.972Z,48.37
2019-05-09T05:38:58.477Z,47.19
2019-05-09T05:41:28.505Z,48.29
2019-05-09T05:43:58.052Z,48.63
2019-05-09T05:46:28.687Z,49.51
2019-05-09T05:48:57.942Z,48.60
2019-05-09T05:51:27.690Z,48.58
2019-05-09T05:53:57.363Z,48.51
2019-05-09T05:56:28.000Z,49.39
2019-05-09T05:58:58.097Z,49.13
2019-05-09T06:01:27.807Z,48.99
2019-05-09T06:03:58.642Z,49.03
2019-05-09T06:06:27.957Z,49.22
2019-05-09T06:08:57.904Z,49.82
2019-05-09T06:11:28.103Z,48.83
2019-05-09T06:14:04.397Z,48.17
2019-05-09T06:16:28.131Z,47.28
2019-05-09T06:18:58.559Z,47.83
2019-05-09T06:21:28.252Z,47.53
2019-05-09T06:23:58.389Z,48.12
2019-05-09T06:26:29.373Z,47.66
2019-05-09T06:28:58.214Z,47.49
2019-05-09T06:31:28.454Z,48.24
2019-05-09T06:33:57.891Z,47.16
2019-05-09T06:36:28.345Z,47.09
2019-05-09T06:38:58.786Z,46.96
2019-05-09T06:41:28.539Z,46.56
2019-05-09T06:44:19.699Z,46.65
2019-05-09T06:46:52.094Z,46.23
2019-05-09T06:49:28.330Z,45.30
2019-05-09T06:51:52.882Z,46.04
2019-05-09T06:54:21.532Z,45.42
2019-05-09T06:56:50.167Z,46.45
2019-05-09T06:59:19.064Z,44.29
2019-05-09T07:01:58.976Z,44.71
2019-05-09T07:04:29.244Z,45.62
2019-05-09T07:07:08.702Z,45.78
2019-05-09T07:09:39.015Z,44.51
2019-05-09T07:12:08.083Z,46.35
2019-05-09T07:14:40.977Z,45.19
2019-05-09T07:17:08.425Z,44.68
2019-05-09T07:19:38.325Z,45.21
2019-05-09T07:22:09.314Z,44.59
2019-05-09T07:25:06.009Z,45.12
2019-05-09T07:27:29.883Z,44.70
2019-05-09T07:30:00.144Z,45.04
2019-05-09T07:32:30.495Z,45.21
2019-05-09T07:35:00.766Z,46.01
2019-05-09T07:37:29.491Z,45.71
2019-05-09T07:39:58.249Z,45.42
2019-05-09T07:42:28.480Z,45.17
2019-05-09T07:44:59.160Z,45.59
2019-05-09T07:47:28.248Z,44.68
2019-05-09T07:49:58.574Z,44.55
2019-05-09T07:52:28.412Z,44.70
2019-05-09T07:54:58.010Z,44.57
2019-05-09T07:57:28.541Z,44.92
2019-05-09T07:59:58.447Z,44.46
2019-05-09T08:02:28.186Z,44.33
2019-05-09T08:04:58.241Z,43.60
2019-05-09T08:07:29.026Z,42.86
2019-05-09T08:09:59.762Z,41.69
2019-05-09T08:12:29.159Z,42.08
2019-05-09T08:15:08.524Z,41.77
2019-05-09T08:17:31.844Z,42.25
2019-05-09T08:20:03.664Z,43.48
2019-05-09T08:22:32.874Z,41.68
2019-05-09T08:25:01.857Z,40.83
2019-05-09T08:27:30.498Z,40.56
2019-05-09T08:29:59.130Z,42.34
2019-05-09T08:32:28.737Z,41.71
2019-05-09T08:34:57.810Z,41.17
2019-05-09T08:37:28.245Z,41.08
2019-05-09T08:39:57.845Z,41.67
2019-05-09T08:42:26.637Z,40.27
2019-05-09T08:44:57.609Z,40.06
2019-05-09T08:47:27.816Z,38.95
2019-05-09T08:50:17.643Z,39.62
2019-05-09T08:52:48.166Z,38.70
2019-05-09T08:55:17.500Z,38.81
2019-05-09T08:57:48.167Z,39.01
2019-05-09T09:00:18.948Z,37.89
2019-05-09T09:02:48.178Z,38.02
2019-05-09T09:05:18.726Z,38.02
2019-05-09T09:07:48.674Z,37.84
2019-05-09T09:10:18.813Z,37.54
2019-05-09T09:12:48.046Z,37.74
2019-05-09T09:15:18.035Z,37.88
2019-05-09T09:17:49.064Z,38.12
2019-05-09T09:20:18.278Z,37.10
2019-05-09T09:22:48.035Z,37.84
2019-05-09T09:25:18.378Z,38.62
2019-05-09T09:27:51.012Z,38.44
2019-05-09T09:30:24.657Z,37.89
2019-05-09T09:32:49.379Z,39.18
2019-05-09T09:35:18.782Z,39.15
2019-05-09T09:37:51.828Z,39.55
2019-05-09T09:40:18.369Z,39.07
2019-05-09T09:42:48.993Z,39.25
2019-05-09T09:45:18.325Z,39.33
2019-05-09T09:47:48.171Z,39.67
2019-05-09T09:50:17.835Z,40.16
2019-05-09T09:52:49.182Z,39.92
2019-05-09T09:55:18.454Z,40.11
2019-05-09T09:57:48.605Z,40.08
2019-05-09T10:00:27.689Z,39.81
2019-05-09T10:02:58.549Z,40.48
2019-05-09T10:05:27.801Z,40.39
2019-05-09T10:07:58.207Z,40.84
2019-05-09T10:10:35.709Z,40.43
2019-05-09T10:13:05.038Z,40.65
2019-05-09T10:15:52.087Z,41.19
2019-05-09T10:18:27.665Z,40.68
2019-05-09T10:21:12.870Z,41.41
2019-05-09T10:23:41.616Z,41.15
2019-05-09T10:26:11.491Z,41.08
2019-05-09T10:28:40.147Z,40.49
2019-05-09T10:31:09.216Z,40.67
2019-05-09T10:33:37.956Z,40.67
2019-05-09T10:36:08.545Z,40.91
2019-05-09T10:38:38.618Z,40.73
2019-05-09T10:41:11.160Z,40.51
2019-05-09T10:43:43.415Z,40.49
2019-05-09T10:46:19.229Z,40.81
2019-05-09T10:48:48.725Z,41.11
2019-05-09T10:51:18.580Z,41.46
2019-05-09T10:53:48.239Z,41.59
2019-05-09T10:56:18.787Z,41.99
2019-05-09T10:58:48.267Z,41.43
2019-05-09T11:01:18.595Z,41.81
2019-05-09T11:03:48.253Z,42.15
2019-05-09T11:06:18.417Z,41.66
2019-05-09T11:08:47.980Z,41.87
2019-05-09T11:11:18.166Z,42.45
2019-05-09T11:13:48.164Z,42.65
2019-05-09T11:16:18.320Z,43.25
2019-05-09T11:18:48.442Z,43.49
2019-05-09T11:21:19.162Z,43.58
2019-05-09T11:23:49.016Z,43.65
2019-05-09T11:26:18.246Z,43.92
2019-05-09T11:28:47.176Z,44.62
2019-05-09T11:31:18.474Z,44.67
2019-05-09T11:33:48.478Z,45.31
2019-05-09T11:36:20.744Z,44.77
2019-05-09T11:38:49.400Z,44.71
2019-05-09T11:41:19.258Z,44.35
2019-05-09T11:43:48.743Z,45.04
2019-05-09T11:46:18.351Z,44.97
2019-05-09T11:48:47.407Z,45.08
2019-05-09T11:51:20.358Z,44.88
2019-05-09T11:53:48.757Z,44.81
2019-05-09T11:56:18.129Z,45.08
2019-05-09T11:58:48.128Z,45.35
2019-05-09T12:01:19.128Z,45.30
2019-05-09T12:03:51.971Z,45.86
2019-05-09T12:06:20.230Z,46.13
2019-05-09T12:08:50.206Z,47.08
2019-05-09T12:11:19.053Z,48.00
2019-05-09T12:13:50.245Z,47.96
2019-05-09T12:16:19.139Z,48.61
2019-05-09T12:18:48.783Z,49.99
2019-05-09T12:21:19.155Z,50.83
2019-05-09T12:23:51.301Z,50.26
2019-05-09T12:26:30.744Z,51.64
2019-05-09T12:29:05.727Z,51.35
2019-05-09T12:31:38.904Z,52.16
2019-05-09T12:34:13.200Z,53.32
2019-05-09T12:36:43.651Z,52.86
2019-05-09T12:39:13.082Z,53.56
2019-05-09T12:41:41.745Z,53.45
2019-05-09T12:44:12.007Z,53.77
2019-05-09T12:46:42.301Z,53.61
2019-05-09T12:49:10.960Z,53.89
2019-05-09T12:51:39.708Z,54.71
2019-05-09T12:54:11.050Z,54.08
2019-05-09T12:56:39.714Z,54.12
2019-05-09T12:59:09.565Z,54.05
2019-05-09T13:01:41.002Z,53.60
2019-05-09T13:04:09.755Z,53.99
2019-05-09T13:06:38.712Z,54.20
2019-05-09T13:09:08.425Z,54.16
2019-05-09T13:11:39.081Z,54.54
2019-05-09T13:14:09.961Z,53.65
2019-05-09T13:16:49.259Z,52.98
2019-05-09T13:19:14.529Z,53.42
2019-05-09T13:21:43.251Z,53.68
2019-05-09T13:24:11.956Z,53.59
2019-05-09T13:26:41.402Z,53.79
2019-05-09T13:29:10.078Z,53.80
2019-05-09T13:31:39.656Z,54.19
2019-05-09T13:34:08.690Z,53.86
2019-05-09T13:36:37.254Z,54.07
2019-05-09T13:39:09.714Z,54.28
2019-05-09T13:41:39.718Z,54.66
2019-05-09T13:44:13.481Z,53.93
2019-05-09T13:46:39.106Z,53.45
2019-05-09T13:49:12.436Z,53.13
2019-05-09T13:51:49.695Z,52.78
2019-05-09T13:54:08.680Z,51.88
2019-05-09T13:56:37.249Z,51.85
2019-05-09T13:59:08.302Z,51.78
2019-05-09T14:01:38.175Z,51.74
2019-05-09T14:04:07.898Z,51.39
2019-05-09T14:06:38.663Z,51.40
2019-05-09T14:09:10.513Z,51.79
2019-05-09T14:11:39.616Z,51.10
2019-05-09T14:14:08.264Z,51.29
2019-05-09T14:16:38.971Z,51.49
2019-05-09T14:19:26.230Z,51.57
2019-05-09T14:21:37.814Z,51.72
2019-05-09T14:24:14.455Z,51.67
2019-05-09T14:26:36.969Z,52.04
2019-05-09T14:29:05.872Z,51.65
2019-05-09T14:31:34.638Z,51.73
2019-05-09T14:34:03.285Z,52.19
2019-05-09T14:36:32.977Z,52.40
2019-05-09T14:39:01.708Z,52.16
2019-05-09T14:41:30.340Z,52.14
2019-05-09T14:43:59.849Z,51.53
2019-05-09T14:46:28.697Z,51.71
2019-05-09T14:48:58.416Z,51.43
2019-05-09T14:51:28.430Z,51.75
2019-05-09T14:53:59.359Z,51.85
2019-05-09T14:56:28.254Z,52.01
2019-05-09T14:58:58.129Z,50.34
2019-05-09T15:01:28.796Z,49.49
2019-05-09T15:03:58.543Z,49.63
2019-05-09T15:06:28.336Z,49.75
2019-05-09T15:08:58.096Z,50.05
2019-05-09T15:11:28.135Z,49.96
2019-05-09T15:13:58.514Z,49.63
2019-05-09T15:16:28.210Z,49.44
2019-05-09T15:18:58.408Z,49.59
2019-05-09T15:21:27.521Z,49.27
2019-05-09T15:23:58.453Z,50.01
2019-05-09T15:26:27.578Z,50.07
2019-05-09T15:28:57.885Z,49.67
2019-05-09T15:31:28.619Z,49.79
2019-05-09T15:33:57.058Z,49.90
2019-05-09T15:36:25.745Z,49.23
2019-05-09T15:38:54.390Z,49.31
2019-05-09T15:41:23.046Z,49.06
2019-05-09T15:43:51.737Z,48.71
2019-05-09T15:46:21.905Z,48.81
2019-05-09T15:48:50.531Z,48.89
2019-05-09T15:51:19.283Z,48.87
2019-05-09T15:53:48.674Z,49.10
2019-05-09T15:56:18.821Z,49.13
2019-05-09T15:58:49.073Z,49.60
2019-05-09T16:01:18.450Z,49.22
2019-05-09T16:03:48.536Z,49.16
2019-05-09T16:06:19.771Z,48.59
2019-05-09T16:08:47.973Z,48.84
2019-05-09T16:11:18.060Z,50.21
2019-05-09T16:13:47.963Z,51.11
2019-05-09T16:16:17.753Z,51.62
2019-05-09T16:18:48.686Z,52.29
2019-05-09T16:21:17.019Z,52.43
2019-05-09T16:23:48.647Z,52.26
2019-05-09T16:26:18.107Z,52.24
2019-05-09T16:28:48.751Z,52.61
2019-05-09T16:31:17.638Z,52.63
2019-05-09T16:33:47.715Z,52.28
2019-05-09T16:36:17.584Z,51.94
2019-05-09T16:38:48.996Z,51.59
2019-05-09T16:41:18.484Z,50.21
2019-05-09T16:43:47.930Z,49.56
2019-05-09T16:46:18.163Z,49.33
2019-05-09T16:48:47.615Z,48.53
2019-05-09T16:51:18.214Z,48.72
2019-05-09T16:53:47.536Z,48.67
2019-05-09T16:56:18.031Z,48.73
2019-05-09T16:58:47.045Z,48.54
2019-05-09T17:01:18.586Z,48.83
2019-05-09T17:03:46.668Z,48.91
2019-05-09T17:06:18.400Z,48.56
2019-05-09T17:08:47.562Z,48.81
2019-05-09T17:11:19.128Z,49.26
2019-05-09T17:13:47.042Z,49.67
2019-05-09T17:16:17.751Z,49.72
2019-05-09T17:18:48.461Z,50.62
2019-05-09T17:21:24.521Z,51.62
2019-05-09T17:23:53.794Z,52.70
2019-05-09T17:26:22.473Z,52.21
2019-05-09T17:28:51.208Z,52.89
2019-05-09T17:31:19.929Z,52.91
2019-05-09T17:33:48.729Z,53.48
2019-05-09T17:36:18.179Z,54.12
2019-05-09T17:38:47.859Z,53.75
2019-05-09T17:41:17.726Z,53.79
2019-05-09T17:43:47.487Z,53.63
2019-05-09T17:46:18.965Z,54.26
2019-05-09T17:48:47.964Z,54.74
2019-05-09T17:51:25.905Z,55.14
2019-05-09T17:53:51.856Z,55.12
2019-05-09T17:56:17.740Z,55.74
2019-05-09T17:58:48.415Z,55.88
2019-05-09T18:01:18.015Z,55.99
2019-05-09T18:03:48.097Z,56.27
2019-05-09T18:06:19.165Z,55.90
2019-05-09T18:08:48.412Z,55.89
2019-05-09T18:11:17.495Z,55.91
2019-05-09T18:16:31.920Z,56.37
2019-05-09T18:19:00.939Z,56.29
2019-05-09T18:25:11.521Z,56.02
2019-05-09T18:27:51.153Z,55.66
2019-05-09T18:30:20.119Z,54.92
2019-05-09T18:32:50.432Z,54.43
2019-05-09T18:35:23.119Z,54.09
2019-05-09T18:37:51.901Z,53.43
2019-05-09T18:40:20.860Z,54.06
2019-05-09T18:42:49.514Z,53.42
2019-05-09T18:45:19.582Z,52.87
2019-05-09T18:47:48.401Z,52.72
2019-05-09T18:50:18.552Z,52.24
2019-05-09T18:52:50.149Z,52.45
2019-05-09T18:55:24.169Z,52.69
2019-05-09T18:57:56.928Z,52.98
2019-05-09T19:00:28.644Z,53.04
2019-05-09T19:02:59.479Z,53.48
2019-05-09T19:05:33.371Z,53.93
2019-05-09T19:08:02.050Z,54.34
2019-05-09T19:10:32.290Z,54.56
2019-05-09T19:13:02.475Z,54.70
2019-05-09T19:15:35.554Z,54.70
2019-05-09T19:18:11.380Z,54.50
2019-05-09T19:20:49.279Z,54.21
2019-05-09T19:23:19.761Z,54.30
2019-05-09T19:25:48.417Z,54.25
2019-05-09T19:28:18.665Z,54.51
2019-05-09T19:30:54.916Z,53.99
2019-05-09T19:33:23.660Z,54.05
2019-05-09T19:35:54.082Z,53.97
2019-05-09T19:38:22.807Z,55.43
2019-05-09T19:40:51.525Z,56.41
2019-05-09T19:43:24.100Z,56.27
2019-05-09T19:45:52.807Z,56.46
2019-05-09T19:48:21.389Z,55.54
2019-05-09T19:50:50.058Z,56.02
2019-05-09T19:53:21.300Z,56.78
2019-05-09T19:55:49.885Z,56.68
2019-05-09T19:58:18.449Z,57.02
2019-05-09T20:00:56.889Z,57.58
2019-05-09T20:03:25.516Z,57.92
2019-05-09T20:05:54.140Z,59.03
2019-05-09T20:08:23.201Z,60.66
2019-05-09T20:11:07.025Z,60.77
2019-05-09T20:13:40.403Z,61.26
2019-05-09T20:16:09.122Z,63.23
2019-05-09T20:18:37.790Z,62.31
2019-05-09T20:21:09.298Z,63.06
2019-05-09T20:23:37.828Z,63.44
2019-05-09T20:26:15.863Z,64.80
2019-05-09T20:28:44.590Z,65.65
2019-05-09T20:31:13.108Z,65.05
2019-05-09T20:33:41.628Z,65.20
2019-05-09T20:36:11.811Z,66.81
2019-05-09T20:38:42.221Z,67.75
2019-05-09T20:41:10.903Z,69.70
2019-05-09T20:43:51.637Z,65.18
2019-05-09T20:46:21.661Z,65.31
2019-05-09T20:48:50.323Z,65.83
2019-05-09T20:51:19.162Z,68.11
2019-05-09T20:53:50.215Z,66.49
2019-05-09T20:56:23.118Z,67.00
2019-05-09T20:58:56.166Z,68.10
2019-05-09T21:01:26.512Z,68.50
2019-05-09T21:04:00.057Z,68.81
2019-05-09T21:06:26.751Z,69.34
2019-05-09T21:08:55.582Z,69.28
2019-05-09T21:11:36.663Z,69.23
2019-05-09T21:14:07.353Z,69.75
2019-05-09T21:16:37.633Z,68.96
2019-05-09T21:19:06.452Z,69.51
2019-05-09T21:21:38.087Z,69.18
2019-05-09T21:24:08.798Z,68.18
2019-05-09T21:26:40.799Z,68.04
2019-05-09T21:29:12.718Z,70.26
2019-05-09T21:31:41.639Z,72.04
2019-05-09T21:34:10.499Z,70.58
2019-05-09T21:36:43.545Z,68.46
2019-05-09T21:39:13.875Z,70.55
2019-05-09T21:41:42.391Z,69.64
2019-05-09T21:44:11.013Z,69.73
2019-05-09T21:46:42.178Z,68.67
2019-05-09T21:49:10.834Z,68.50
2019-05-09T21:51:42.215Z,68.88
2019-05-09T21:54:10.790Z,68.29
2019-05-09T21:56:41.095Z,68.37
2019-05-09T21:59:09.789Z,68.40
2019-05-09T22:01:41.198Z,68.05
2019-05-09T22:04:09.923Z,68.14
2019-05-09T22:06:40.269Z,68.74
2019-05-09T22:09:10.389Z,69.62
2019-05-09T22:11:39.026Z,70.20
2019-05-09T22:14:07.746Z,69.58
2019-05-09T22:16:36.480Z,69.35
2019-05-09T22:19:05.099Z,69.40
2019-05-09T22:21:38.474Z,69.54
2019-05-09T22:24:07.066Z,70.14
2019-05-09T22:26:35.729Z,69.99
2019-05-09T22:29:07.720Z,69.45
2019-05-09T22:31:37.901Z,69.56
2019-05-09T22:34:06.472Z,69.76
2019-05-09T22:36:35.167Z,69.86
2019-05-09T22:39:05.284Z,68.49
2019-05-09T22:41:33.935Z,68.56
2019-05-09T22:44:02.620Z,69.77
2019-05-09T22:46:31.330Z,69.60
2019-05-09T22:49:05.138Z,69.50
2019-05-09T22:51:39.723Z,70.17
2019-05-09T22:54:12.759Z,68.94
2019-05-09T22:56:38.704Z,69.13
2019-05-09T22:59:11.515Z,68.36
2019-05-09T23:01:41.622Z,70.00
2019-05-09T23:04:11.906Z,70.71
2019-05-09T23:06:40.518Z,71.32
2019-05-09T23:09:09.169Z,70.53
2019-05-09T23:11:40.625Z,72.02
2019-05-09T23:14:11.421Z,71.83
2019-05-09T23:16:41.177Z,71.55
2019-05-09T23:19:09.815Z,71.78
2019-05-09T23:21:38.575Z,71.13
2019-05-09T23:24:08.847Z,71.78
2019-05-09T23:26:42.302Z,70.62
2019-05-09T23:29:10.932Z,68.67
2019-05-09T23:31:42.711Z,69.29
2019-05-09T23:34:11.354Z,70.14
2019-05-09T23:36:42.521Z,69.93
2019-05-09T23:39:15.972Z,70.86
2019-05-09T23:41:45.983Z,69.16
2019-05-09T23:44:14.562Z,70.55
2019-05-09T23:46:45.623Z,69.57
2019-05-09T23:49:14.324Z,69.39
2019-05-09T23:51:46.079Z,69.66
2019-05-09T23:54:45.191Z,69.46
2019-05-09T23:57:25.120Z,71.53
